sensor_id;sensor_type;location;lat;lon;timestamp;P1;durP1;ratioP1;P2;durP2;ratioP2
33824;SDS011;20127;48.962;8.342;2022-10-19T00:00:30;42.92;;;10.95;;
33824;SDS011;20127;48.962;8.342;2022-10-19T00:03:34;56.78;;;13.48;;
33824;SDS011;20127;48.962;8.342;2022-10-19T00:06:36;46.08;;;12.05;;
33824;SDS011;20127;48.962;8.342;2022-10-19T00:09:38;51.15;;;11.02;;
33824;SDS011;20127;48.962;8.342;2022-10-19T00:12:40;61.63;;;12.10;;
33824;SDS011;20127;48.962;8.342;2022-10-19T00:15:41;61.70;;;13.05;;
33824;SDS011;20127;48.962;8.342;2022-10-19T00:18:45;50.83;;;10.68;;
33824;SDS011;20127;48.962;8.342;2022-10-19T00:21:47;49.25;;;12.43;;
33824;SDS011;20127;48.962;8.342;2022-10-19T00:24:49;43.88;;;12.30;;
33824;SDS011;20127;48.962;8.342;2022-10-19T00:27:50;48.63;;;10.07;;
33824;SDS011;20127;48.962;8.342;2022-10-19T00:30:52;41.72;;;12.90;;
33824;SDS011;20127;48.962;8.342;2022-10-19T00:33:56;38.97;;;10.38;;
33824;SDS011;20127;48.962;8.342;2022-10-19T00:36:58;47.17;;;11.68;;
33824;SDS011;20127;48.962;8.342;2022-10-19T00:40:01;49.60;;;11.13;;
33824;SDS011;20127;48.962;8.342;2022-10-19T00:43:02;57.72;;;11.50;;
33824;SDS011;20127;48.962;8.342;2022-10-19T00:46:04;48.72;;;10.05;;
33824;SDS011;20127;48.962;8.342;2022-10-19T00:49:08;36.45;;;10.48;;
33824;SDS011;20127;48.962;8.342;2022-10-19T00:52:14;52.27;;;9.93;;
33824;SDS011;20127;48.962;8.342;2022-10-19T00:55:18;32.75;;;9.18;;
33824;SDS011;20127;48.962;8.342;2022-10-19T00:58:20;47.63;;;10.68;;
33824;SDS011;20127;48.962;8.342;2022-10-19T01:01:21;38.85;;;10.80;;
33824;SDS011;20127;48.962;8.342;2022-10-19T01:04:26;50.05;;;11.70;;
33824;SDS011;20127;48.962;8.342;2022-10-19T01:07:29;44.30;;;12.15;;
33824;SDS011;20127;48.962;8.342;2022-10-19T01:10:36;51.00;;;11.38;;
33824;SDS011;20127;48.962;8.342;2022-10-19T01:13:46;63.25;;;11.48;;
33824;SDS011;20127;48.962;8.342;2022-10-19T01:16:59;48.97;;;9.95;;
33824;SDS011;20127;48.962;8.342;2022-10-19T01:20:30;49.42;;;11.13;;
33824;SDS011;20127;48.962;8.342;2022-10-19T01:27:49;42.63;;;11.40;;
33824;SDS011;20127;48.962;8.342;2022-10-19T01:31:02;43.83;;;11.57;;
33824;SDS011;20127;48.962;8.342;2022-10-19T01:34:12;54.75;;;12.90;;
33824;SDS011;20127;48.962;8.342;2022-10-19T01:40:23;54.60;;;11.88;;
33824;SDS011;20127;48.962;8.342;2022-10-19T01:43:32;52.30;;;13.55;;
33824;SDS011;20127;48.962;8.342;2022-10-19T01:46:42;48.08;;;13.00;;
33824;SDS011;20127;48.962;8.342;2022-10-19T01:49:48;56.13;;;13.70;;
33824;SDS011;20127;48.962;8.342;2022-10-19T01:52:54;35.50;;;10.40;;
33824;SDS011;20127;48.962;8.342;2022-10-19T01:55:57;43.08;;;11.60;;
33824;SDS011;20127;48.962;8.342;2022-10-19T01:59:02;45.72;;;13.15;;
33824;SDS011;20127;48.962;8.342;2022-10-19T02:02:09;51.70;;;11.90;;
33824;SDS011;20127;48.962;8.342;2022-10-19T02:05:12;48.40;;;13.45;;
33824;SDS011;20127;48.962;8.342;2022-10-19T02:08:16;42.10;;;11.20;;
33824;SDS011;20127;48.962;8.342;2022-10-19T02:11:23;46.17;;;12.90;;
33824;SDS011;20127;48.962;8.342;2022-10-19T02:14:29;33.45;;;12.00;;
33824;SDS011;20127;48.962;8.342;2022-10-19T02:17:37;39.95;;;11.48;;
33824;SDS011;20127;48.962;8.342;2022-10-19T02:20:42;47.28;;;12.52;;
33824;SDS011;20127;48.962;8.342;2022-10-19T02:23:44;61.25;;;12.55;;
33824;SDS011;20127;48.962;8.342;2022-10-19T02:26:46;47.67;;;11.43;;
33824;SDS011;20127;48.962;8.342;2022-10-19T02:29:47;37.92;;;10.70;;
33824;SDS011;20127;48.962;8.342;2022-10-19T02:32:51;49.15;;;13.50;;
33824;SDS011;20127;48.962;8.342;2022-10-19T02:35:53;60.05;;;14.75;;
33824;SDS011;20127;48.962;8.342;2022-10-19T02:38:55;60.08;;;13.52;;
33824;SDS011;20127;48.962;8.342;2022-10-19T02:41:57;51.03;;;12.88;;
33824;SDS011;20127;48.962;8.342;2022-10-19T02:45:02;61.53;;;13.43;;
33824;SDS011;20127;48.962;8.342;2022-10-19T02:48:11;74.60;;;16.25;;
33824;SDS011;20127;48.962;8.342;2022-10-19T02:51:26;67.32;;;14.95;;
33824;SDS011;20127;48.962;8.342;2022-10-19T02:54:29;60.22;;;15.25;;
33824;SDS011;20127;48.962;8.342;2022-10-19T02:57:31;46.95;;;13.05;;
33824;SDS011;20127;48.962;8.342;2022-10-19T03:00:32;53.05;;;12.60;;
33824;SDS011;20127;48.962;8.342;2022-10-19T03:03:35;38.80;;;9.93;;
33824;SDS011;20127;48.962;8.342;2022-10-19T03:06:37;60.05;;;13.13;;
33824;SDS011;20127;48.962;8.342;2022-10-19T03:09:39;62.80;;;12.80;;
33824;SDS011;20127;48.962;8.342;2022-10-19T03:12:41;66.97;;;14.60;;
33824;SDS011;20127;48.962;8.342;2022-10-19T03:15:42;59.38;;;12.57;;
33824;SDS011;20127;48.962;8.342;2022-10-19T03:18:46;57.00;;;12.82;;
33824;SDS011;20127;48.962;8.342;2022-10-19T03:21:48;56.28;;;14.60;;
33824;SDS011;20127;48.962;8.342;2022-10-19T03:24:50;50.97;;;13.30;;
33824;SDS011;20127;48.962;8.342;2022-10-19T03:27:51;52.80;;;13.85;;
33824;SDS011;20127;48.962;8.342;2022-10-19T03:30:53;57.88;;;13.15;;
33824;SDS011;20127;48.962;8.342;2022-10-19T03:33:56;46.55;;;12.80;;
33824;SDS011;20127;48.962;8.342;2022-10-19T03:36:58;59.17;;;13.60;;
33824;SDS011;20127;48.962;8.342;2022-10-19T03:40:00;61.53;;;14.02;;
33824;SDS011;20127;48.962;8.342;2022-10-19T03:43:01;53.80;;;14.27;;
33824;SDS011;20127;48.962;8.342;2022-10-19T03:46:03;62.47;;;13.10;;
33824;SDS011;20127;48.962;8.342;2022-10-19T03:49:07;58.22;;;13.63;;
33824;SDS011;20127;48.962;8.342;2022-10-19T03:52:13;52.78;;;14.55;;
33824;SDS011;20127;48.962;8.342;2022-10-19T03:55:15;74.78;;;15.18;;
33824;SDS011;20127;48.962;8.342;2022-10-19T03:58:17;57.20;;;14.02;;
33824;SDS011;20127;48.962;8.342;2022-10-19T04:01:20;63.05;;;13.77;;
33824;SDS011;20127;48.962;8.342;2022-10-19T04:04:24;49.60;;;13.45;;
33824;SDS011;20127;48.962;8.342;2022-10-19T04:07:26;49.85;;;12.73;;
33824;SDS011;20127;48.962;8.342;2022-10-19T04:10:29;44.35;;;13.20;;
33824;SDS011;20127;48.962;8.342;2022-10-19T04:13:31;44.20;;;11.27;;
33824;SDS011;20127;48.962;8.342;2022-10-19T04:16:34;59.85;;;12.18;;
33824;SDS011;20127;48.962;8.342;2022-10-19T04:19:37;45.67;;;12.48;;
33824;SDS011;20127;48.962;8.342;2022-10-19T04:22:38;54.25;;;14.07;;
33824;SDS011;20127;48.962;8.342;2022-10-19T04:25:40;53.65;;;12.85;;
33824;SDS011;20127;48.962;8.342;2022-10-19T04:28:42;40.30;;;12.20;;
33824;SDS011;20127;48.962;8.342;2022-10-19T04:31:44;44.30;;;9.77;;
33824;SDS011;20127;48.962;8.342;2022-10-19T04:34:47;38.38;;;11.73;;
33824;SDS011;20127;48.962;8.342;2022-10-19T04:37:49;43.25;;;11.18;;
33824;SDS011;20127;48.962;8.342;2022-10-19T04:40:51;40.72;;;12.18;;
33824;SDS011;20127;48.962;8.342;2022-10-19T04:43:53;43.63;;;12.15;;
33824;SDS011;20127;48.962;8.342;2022-10-19T04:46:57;45.20;;;12.98;;
33824;SDS011;20127;48.962;8.342;2022-10-19T04:50:00;47.40;;;13.15;;
33824;SDS011;20127;48.962;8.342;2022-10-19T04:53:02;35.05;;;10.98;;
33824;SDS011;20127;48.962;8.342;2022-10-19T04:56:04;49.03;;;12.32;;
33824;SDS011;20127;48.962;8.342;2022-10-19T04:59:06;44.53;;;12.13;;
33824;SDS011;20127;48.962;8.342;2022-10-19T05:02:09;43.88;;;12.43;;
33824;SDS011;20127;48.962;8.342;2022-10-19T05:05:12;41.13;;;11.75;;
33824;SDS011;20127;48.962;8.342;2022-10-19T05:08:14;49.50;;;13.10;;
33824;SDS011;20127;48.962;8.342;2022-10-19T05:11:16;40.67;;;13.43;;
33824;SDS011;20127;48.962;8.342;2022-10-19T05:14:19;48.15;;;11.55;;
33824;SDS011;20127;48.962;8.342;2022-10-19T05:17:20;45.58;;;12.75;;
33824;SDS011;20127;48.962;8.342;2022-10-19T05:20:23;35.13;;;12.18;;
33824;SDS011;20127;48.962;8.342;2022-10-19T05:23:26;44.65;;;12.13;;
33824;SDS011;20127;48.962;8.342;2022-10-19T05:26:28;50.30;;;14.07;;
33824;SDS011;20127;48.962;8.342;2022-10-19T05:29:29;45.70;;;11.80;;
33824;SDS011;20127;48.962;8.342;2022-10-19T05:32:33;37.03;;;10.85;;
33824;SDS011;20127;48.962;8.342;2022-10-19T05:35:36;46.40;;;12.25;;
33824;SDS011;20127;48.962;8.342;2022-10-19T05:38:38;43.85;;;11.25;;
33824;SDS011;20127;48.962;8.342;2022-10-19T05:41:41;48.08;;;11.45;;
33824;SDS011;20127;48.962;8.342;2022-10-19T05:44:43;47.75;;;13.10;;
33824;SDS011;20127;48.962;8.342;2022-10-19T05:47:44;49.65;;;12.55;;
33824;SDS011;20127;48.962;8.342;2022-10-19T05:50:52;37.55;;;11.07;;
33824;SDS011;20127;48.962;8.342;2022-10-19T05:56:56;29.85;;;10.93;;
33824;SDS011;20127;48.962;8.342;2022-10-19T05:59:58;37.42;;;12.18;;
33824;SDS011;20127;48.962;8.342;2022-10-19T06:02:59;43.03;;;13.48;;
33824;SDS011;20127;48.962;8.342;2022-10-19T06:06:03;31.40;;;11.07;;
33824;SDS011;20127;48.962;8.342;2022-10-19T06:09:06;41.15;;;10.80;;
33824;SDS011;20127;48.962;8.342;2022-10-19T06:12:08;44.85;;;12.32;;
33824;SDS011;20127;48.962;8.342;2022-10-19T06:15:10;44.72;;;12.75;;
33824;SDS011;20127;48.962;8.342;2022-10-19T06:18:12;37.15;;;10.63;;
33824;SDS011;20127;48.962;8.342;2022-10-19T06:21:15;38.60;;;11.05;;
33824;SDS011;20127;48.962;8.342;2022-10-19T06:24:18;35.20;;;12.25;;
33824;SDS011;20127;48.962;8.342;2022-10-19T06:27:20;43.53;;;12.88;;
33824;SDS011;20127;48.962;8.342;2022-10-19T06:30:22;42.90;;;12.38;;
33824;SDS011;20127;48.962;8.342;2022-10-19T06:33:24;33.95;;;11.18;;
33824;SDS011;20127;48.962;8.342;2022-10-19T06:36:28;41.90;;;13.85;;
33824;SDS011;20127;48.962;8.342;2022-10-19T06:39:30;44.83;;;13.00;;
33824;SDS011;20127;48.962;8.342;2022-10-19T06:42:32;34.63;;;11.13;;
33824;SDS011;20127;48.962;8.342;2022-10-19T06:45:37;36.95;;;12.27;;
33824;SDS011;20127;48.962;8.342;2022-10-19T06:48:40;34.10;;;9.85;;
33824;SDS011;20127;48.962;8.342;2022-10-19T06:51:43;38.92;;;11.25;;
33824;SDS011;20127;48.962;8.342;2022-10-19T06:54:45;29.67;;;9.25;;
33824;SDS011;20127;48.962;8.342;2022-10-19T06:57:46;34.17;;;9.73;;
33824;SDS011;20127;48.962;8.342;2022-10-19T07:00:52;28.98;;;10.45;;
33824;SDS011;20127;48.962;8.342;2022-10-19T07:03:56;28.88;;;10.65;;
33824;SDS011;20127;48.962;8.342;2022-10-19T07:06:59;32.83;;;10.05;;
33824;SDS011;20127;48.962;8.342;2022-10-19T07:10:00;23.63;;;9.55;;
33824;SDS011;20127;48.962;8.342;2022-10-19T07:13:02;23.90;;;9.38;;
33824;SDS011;20127;48.962;8.342;2022-10-19T07:16:04;28.63;;;10.15;;
33824;SDS011;20127;48.962;8.342;2022-10-19T07:19:10;18.83;;;8.88;;
33824;SDS011;20127;48.962;8.342;2022-10-19T07:22:13;24.65;;;8.63;;
33824;SDS011;20127;48.962;8.342;2022-10-19T07:25:15;23.75;;;8.35;;
33824;SDS011;20127;48.962;8.342;2022-10-19T07:28:17;24.63;;;8.88;;
33824;SDS011;20127;48.962;8.342;2022-10-19T07:31:19;17.92;;;7.15;;
33824;SDS011;20127;48.962;8.342;2022-10-19T07:34:23;21.95;;;8.20;;
33824;SDS011;20127;48.962;8.342;2022-10-19T07:37:26;16.75;;;7.97;;
33824;SDS011;20127;48.962;8.342;2022-10-19T07:40:27;20.65;;;7.25;;
33824;SDS011;20127;48.962;8.342;2022-10-19T07:43:29;13.55;;;6.47;;
33824;SDS011;20127;48.962;8.342;2022-10-19T07:46:49;11.25;;;6.07;;
33824;SDS011;20127;48.962;8.342;2022-10-19T07:49:54;13.77;;;6.93;;
33824;SDS011;20127;48.962;8.342;2022-10-19T07:52:57;11.23;;;5.50;;
33824;SDS011;20127;48.962;8.342;2022-10-19T07:56:01;11.43;;;5.47;;
33824;SDS011;20127;48.962;8.342;2022-10-19T07:59:04;15.65;;;6.45;;
33824;SDS011;20127;48.962;8.342;2022-10-19T08:02:07;16.40;;;7.30;;
33824;SDS011;20127;48.962;8.342;2022-10-19T08:05:13;12.88;;;5.93;;
33824;SDS011;20127;48.962;8.342;2022-10-19T08:08:17;13.95;;;6.85;;
33824;SDS011;20127;48.962;8.342;2022-10-19T08:11:19;15.07;;;6.68;;
33824;SDS011;20127;48.962;8.342;2022-10-19T08:14:22;12.15;;;5.65;;
33824;SDS011;20127;48.962;8.342;2022-10-19T08:17:24;15.85;;;5.47;;
33824;SDS011;20127;48.962;8.342;2022-10-19T08:20:26;11.40;;;5.85;;
33824;SDS011;20127;48.962;8.342;2022-10-19T08:23:29;14.15;;;5.55;;
33824;SDS011;20127;48.962;8.342;2022-10-19T08:26:32;9.20;;;5.55;;
33824;SDS011;20127;48.962;8.342;2022-10-19T08:29:35;10.82;;;5.88;;
33824;SDS011;20127;48.962;8.342;2022-10-19T08:32:37;12.10;;;5.90;;
33824;SDS011;20127;48.962;8.342;2022-10-19T08:35:38;10.77;;;6.30;;
33824;SDS011;20127;48.962;8.342;2022-10-19T08:38:42;10.77;;;6.10;;
33824;SDS011;20127;48.962;8.342;2022-10-19T08:41:48;12.18;;;5.85;;
33824;SDS011;20127;48.962;8.342;2022-10-19T08:45:01;13.93;;;6.22;;
33824;SDS011;20127;48.962;8.342;2022-10-19T08:51:36;12.15;;;6.32;;
33824;SDS011;20127;48.962;8.342;2022-10-19T08:54:42;12.82;;;5.90;;
33824;SDS011;20127;48.962;8.342;2022-10-19T08:57:55;13.73;;;6.85;;
33824;SDS011;20127;48.962;8.342;2022-10-19T09:01:04;13.98;;;5.82;;
33824;SDS011;20127;48.962;8.342;2022-10-19T09:04:09;11.30;;;6.15;;
33824;SDS011;20127;48.962;8.342;2022-10-19T09:07:20;10.95;;;5.47;;
33824;SDS011;20127;48.962;8.342;2022-10-19T09:10:26;12.80;;;5.97;;
33824;SDS011;20127;48.962;8.342;2022-10-19T09:13:32;8.85;;;5.13;;
33824;SDS011;20127;48.962;8.342;2022-10-19T09:16:37;13.50;;;6.18;;
33824;SDS011;20127;48.962;8.342;2022-10-19T09:19:39;12.27;;;5.32;;
33824;SDS011;20127;48.962;8.342;2022-10-19T09:22:41;12.15;;;5.30;;
33824;SDS011;20127;48.962;8.342;2022-10-19T09:25:44;10.63;;;5.38;;
33824;SDS011;20127;48.962;8.342;2022-10-19T09:28:51;10.60;;;5.07;;
33824;SDS011;20127;48.962;8.342;2022-10-19T09:31:55;6.43;;;4.30;;
33824;SDS011;20127;48.962;8.342;2022-10-19T09:35:00;12.68;;;6.45;;
33824;SDS011;20127;48.962;8.342;2022-10-19T09:38:05;7.78;;;4.65;;
33824;SDS011;20127;48.962;8.342;2022-10-19T09:41:13;11.30;;;4.40;;
33824;SDS011;20127;48.962;8.342;2022-10-19T09:44:17;15.40;;;4.38;;
33824;SDS011;20127;48.962;8.342;2022-10-19T09:47:25;8.25;;;4.15;;
33824;SDS011;20127;48.962;8.342;2022-10-19T09:50:32;12.38;;;5.70;;
33824;SDS011;20127;48.962;8.342;2022-10-19T09:53:37;11.05;;;4.22;;
33824;SDS011;20127;48.962;8.342;2022-10-19T09:56:48;10.50;;;4.20;;
33824;SDS011;20127;48.962;8.342;2022-10-19T09:59:56;8.75;;;4.10;;
33824;SDS011;20127;48.962;8.342;2022-10-19T10:03:00;8.18;;;4.75;;
33824;SDS011;20127;48.962;8.342;2022-10-19T10:06:03;8.00;;;4.10;;
33824;SDS011;20127;48.962;8.342;2022-10-19T10:09:09;15.95;;;3.97;;
33824;SDS011;20127;48.962;8.342;2022-10-19T10:12:17;9.52;;;4.45;;
33824;SDS011;20127;48.962;8.342;2022-10-19T10:15:20;8.43;;;4.57;;
33824;SDS011;20127;48.962;8.342;2022-10-19T10:18:25;10.55;;;5.47;;
33824;SDS011;20127;48.962;8.342;2022-10-19T10:21:29;8.57;;;4.40;;
33824;SDS011;20127;48.962;8.342;2022-10-19T10:24:33;11.52;;;4.95;;
33824;SDS011;20127;48.962;8.342;2022-10-19T10:27:37;9.80;;;4.35;;
33824;SDS011;20127;48.962;8.342;2022-10-19T10:30:39;10.25;;;4.93;;
33824;SDS011;20127;48.962;8.342;2022-10-19T10:33:41;8.77;;;4.78;;
33824;SDS011;20127;48.962;8.342;2022-10-19T10:36:43;11.85;;;4.75;;
33824;SDS011;20127;48.962;8.342;2022-10-19T10:39:50;7.30;;;3.72;;
33824;SDS011;20127;48.962;8.342;2022-10-19T10:42:54;8.20;;;4.95;;
33824;SDS011;20127;48.962;8.342;2022-10-19T10:45:59;11.50;;;4.25;;
33824;SDS011;20127;48.962;8.342;2022-10-19T10:49:04;8.23;;;4.00;;
33824;SDS011;20127;48.962;8.342;2022-10-19T10:52:09;6.97;;;3.30;;
33824;SDS011;20127;48.962;8.342;2022-10-19T10:55:15;8.40;;;3.75;;
33824;SDS011;20127;48.962;8.342;2022-10-19T10:58:20;14.13;;;3.70;;
33824;SDS011;20127;48.962;8.342;2022-10-19T11:01:35;6.55;;;2.97;;
33824;SDS011;20127;48.962;8.342;2022-10-19T11:04:43;6.17;;;3.40;;
33824;SDS011;20127;48.962;8.342;2022-10-19T11:07:52;8.55;;;3.70;;
33824;SDS011;20127;48.962;8.342;2022-10-19T11:10:57;5.38;;;3.42;;
33824;SDS011;20127;48.962;8.342;2022-10-19T11:14:14;8.80;;;2.88;;
33824;SDS011;20127;48.962;8.342;2022-10-19T11:17:32;5.13;;;2.90;;
33824;SDS011;20127;48.962;8.342;2022-10-19T11:20:52;6.90;;;2.80;;
33824;SDS011;20127;48.962;8.342;2022-10-19T11:24:07;5.13;;;2.78;;
33824;SDS011;20127;48.962;8.342;2022-10-19T11:27:23;5.57;;;2.67;;
33824;SDS011;20127;48.962;8.342;2022-10-19T11:30:45;5.00;;;2.17;;
33824;SDS011;20127;48.962;8.342;2022-10-19T11:33:58;6.50;;;2.72;;
33824;SDS011;20127;48.962;8.342;2022-10-19T11:37:10;5.78;;;2.88;;
33824;SDS011;20127;48.962;8.342;2022-10-19T11:40:22;5.30;;;2.95;;
33824;SDS011;20127;48.962;8.342;2022-10-19T11:43:29;2.70;;;1.88;;
33824;SDS011;20127;48.962;8.342;2022-10-19T11:46:39;4.00;;;2.08;;
33824;SDS011;20127;48.962;8.342;2022-10-19T11:49:48;3.13;;;1.85;;
33824;SDS011;20127;48.962;8.342;2022-10-19T11:53:04;3.85;;;2.35;;
33824;SDS011;20127;48.962;8.342;2022-10-19T11:56:18;2.92;;;1.38;;
33824;SDS011;20127;48.962;8.342;2022-10-19T11:59:29;3.40;;;2.15;;
33824;SDS011;20127;48.962;8.342;2022-10-19T12:02:49;4.38;;;2.80;;
33824;SDS011;20127;48.962;8.342;2022-10-19T12:06:07;5.13;;;2.65;;
33824;SDS011;20127;48.962;8.342;2022-10-19T12:09:23;4.60;;;1.52;;
33824;SDS011;20127;48.962;8.342;2022-10-19T12:16:10;6.70;;;1.65;;
33824;SDS011;20127;48.962;8.342;2022-10-19T12:19:21;2.58;;;1.60;;
33824;SDS011;20127;48.962;8.342;2022-10-19T12:22:27;4.95;;;1.42;;
33824;SDS011;20127;48.962;8.342;2022-10-19T12:25:30;3.25;;;1.50;;
33824;SDS011;20127;48.962;8.342;2022-10-19T12:28:34;4.10;;;1.70;;
33824;SDS011;20127;48.962;8.342;2022-10-19T12:31:38;2.60;;;1.50;;
33824;SDS011;20127;48.962;8.342;2022-10-19T12:34:43;1.70;;;1.33;;
33824;SDS011;20127;48.962;8.342;2022-10-19T12:37:53;2.95;;;1.30;;
33824;SDS011;20127;48.962;8.342;2022-10-19T12:40:59;1.55;;;1.05;;
33824;SDS011;20127;48.962;8.342;2022-10-19T12:44:12;2.00;;;1.20;;
33824;SDS011;20127;48.962;8.342;2022-10-19T12:47:27;3.53;;;1.65;;
33824;SDS011;20127;48.962;8.342;2022-10-19T12:54:07;4.68;;;1.23;;
33824;SDS011;20127;48.962;8.342;2022-10-19T13:00:38;4.85;;;1.33;;
33824;SDS011;20127;48.962;8.342;2022-10-19T13:03:41;4.13;;;1.38;;
33824;SDS011;20127;48.962;8.342;2022-10-19T13:06:46;2.30;;;1.20;;
33824;SDS011;20127;48.962;8.342;2022-10-19T13:09:49;1.27;;;0.55;;
33824;SDS011;20127;48.962;8.342;2022-10-19T13:13:01;2.22;;;1.13;;
33824;SDS011;20127;48.962;8.342;2022-10-19T13:16:17;6.80;;;1.50;;
33824;SDS011;20127;48.962;8.342;2022-10-19T13:23:40;1.58;;;1.00;;
33824;SDS011;20127;48.962;8.342;2022-10-19T13:26:44;1.63;;;0.90;;
33824;SDS011;20127;48.962;8.342;2022-10-19T13:29:45;0.90;;;0.70;;
33824;SDS011;20127;48.962;8.342;2022-10-19T13:32:47;1.50;;;0.90;;
33824;SDS011;20127;48.962;8.342;2022-10-19T13:35:52;2.55;;;1.23;;
33824;SDS011;20127;48.962;8.342;2022-10-19T13:39:14;1.40;;;1.05;;
33824;SDS011;20127;48.962;8.342;2022-10-19T13:42:21;2.53;;;0.80;;
33824;SDS011;20127;48.962;8.342;2022-10-19T13:45:25;2.10;;;1.13;;
33824;SDS011;20127;48.962;8.342;2022-10-19T13:48:29;2.30;;;1.15;;
33824;SDS011;20127;48.962;8.342;2022-10-19T13:51:40;2.67;;;0.55;;
33824;SDS011;20127;48.962;8.342;2022-10-19T13:55:01;1.52;;;0.90;;
33824;SDS011;20127;48.962;8.342;2022-10-19T13:58:41;1.23;;;0.80;;
33824;SDS011;20127;48.962;8.342;2022-10-19T14:06:01;1.65;;;0.95;;
33824;SDS011;20127;48.962;8.342;2022-10-19T14:16:25;1.25;;;0.98;;
33824;SDS011;20127;48.962;8.342;2022-10-19T14:19:27;2.95;;;0.60;;
33824;SDS011;20127;48.962;8.342;2022-10-19T14:22:42;2.38;;;0.80;;
33824;SDS011;20127;48.962;8.342;2022-10-19T14:25:59;2.25;;;0.88;;
33824;SDS011;20127;48.962;8.342;2022-10-19T14:29:21;9.57;;;1.40;;
33824;SDS011;20127;48.962;8.342;2022-10-19T14:32:24;2.78;;;0.70;;
33824;SDS011;20127;48.962;8.342;2022-10-19T14:35:28;1.40;;;0.50;;
33824;SDS011;20127;48.962;8.342;2022-10-19T14:38:34;1.80;;;1.23;;
33824;SDS011;20127;48.962;8.342;2022-10-19T14:41:37;2.20;;;0.88;;
33824;SDS011;20127;48.962;8.342;2022-10-19T14:44:40;1.52;;;0.88;;
33824;SDS011;20127;48.962;8.342;2022-10-19T14:47:51;3.67;;;1.05;;
33824;SDS011;20127;48.962;8.342;2022-10-19T14:50:57;1.25;;;0.73;;
33824;SDS011;20127;48.962;8.342;2022-10-19T14:54:00;2.25;;;0.80;;
33824;SDS011;20127;48.962;8.342;2022-10-19T14:57:06;3.10;;;0.73;;
33824;SDS011;20127;48.962;8.342;2022-10-19T15:00:13;3.60;;;0.75;;
33824;SDS011;20127;48.962;8.342;2022-10-19T15:03:22;2.27;;;1.33;;
33824;SDS011;20127;48.962;8.342;2022-10-19T15:06:27;2.95;;;0.98;;
33824;SDS011;20127;48.962;8.342;2022-10-19T15:09:31;1.55;;;0.90;;
33824;SDS011;20127;48.962;8.342;2022-10-19T15:12:36;1.73;;;0.85;;
33824;SDS011;20127;48.962;8.342;2022-10-19T15:15:40;6.40;;;1.15;;
33824;SDS011;20127;48.962;8.342;2022-10-19T15:18:43;1.83;;;0.80;;
33824;SDS011;20127;48.962;8.342;2022-10-19T15:21:45;3.65;;;1.08;;
33824;SDS011;20127;48.962;8.342;2022-10-19T15:24:54;3.05;;;0.75;;
33824;SDS011;20127;48.962;8.342;2022-10-19T15:28:19;1.83;;;1.10;;
33824;SDS011;20127;48.962;8.342;2022-10-19T15:31:31;5.28;;;1.00;;
33824;SDS011;20127;48.962;8.342;2022-10-19T15:34:35;4.03;;;0.95;;
33824;SDS011;20127;48.962;8.342;2022-10-19T15:37:37;2.00;;;1.10;;
33824;SDS011;20127;48.962;8.342;2022-10-19T15:40:42;2.20;;;1.25;;
33824;SDS011;20127;48.962;8.342;2022-10-19T15:43:48;3.30;;;1.30;;
33824;SDS011;20127;48.962;8.342;2022-10-19T15:50:30;3.22;;;1.27;;
33824;SDS011;20127;48.962;8.342;2022-10-19T15:53:37;2.95;;;1.40;;
33824;SDS011;20127;48.962;8.342;2022-10-19T15:56:38;4.47;;;1.15;;
33824;SDS011;20127;48.962;8.342;2022-10-19T15:59:40;5.60;;;1.23;;
33824;SDS011;20127;48.962;8.342;2022-10-19T16:02:42;6.10;;;1.50;;
33824;SDS011;20127;48.962;8.342;2022-10-19T16:05:45;3.20;;;1.17;;
33824;SDS011;20127;48.962;8.342;2022-10-19T16:08:47;5.72;;;1.70;;
33824;SDS011;20127;48.962;8.342;2022-10-19T16:11:50;3.10;;;1.17;;
33824;SDS011;20127;48.962;8.342;2022-10-19T16:14:59;6.68;;;1.52;;
33824;SDS011;20127;48.962;8.342;2022-10-19T16:18:03;3.42;;;1.25;;
33824;SDS011;20127;48.962;8.342;2022-10-19T16:21:06;3.58;;;1.60;;
33824;SDS011;20127;48.962;8.342;2022-10-19T16:24:08;4.63;;;1.50;;
33824;SDS011;20127;48.962;8.342;2022-10-19T16:27:10;3.92;;;1.50;;
33824;SDS011;20127;48.962;8.342;2022-10-19T16:30:14;12.82;;;2.78;;
33824;SDS011;20127;48.962;8.342;2022-10-19T16:33:15;23.77;;;5.78;;
33824;SDS011;20127;48.962;8.342;2022-10-19T16:36:18;5.63;;;1.40;;
33824;SDS011;20127;48.962;8.342;2022-10-19T16:39:20;3.67;;;1.50;;
33824;SDS011;20127;48.962;8.342;2022-10-19T16:42:24;7.72;;;1.50;;
33824;SDS011;20127;48.962;8.342;2022-10-19T16:45:26;3.35;;;1.63;;
33824;SDS011;20127;48.962;8.342;2022-10-19T16:48:28;3.33;;;1.73;;
33824;SDS011;20127;48.962;8.342;2022-10-19T16:51:33;3.42;;;1.85;;
33824;SDS011;20127;48.962;8.342;2022-10-19T16:54:36;9.45;;;1.77;;
33824;SDS011;20127;48.962;8.342;2022-10-19T16:57:38;15.30;;;1.77;;
33824;SDS011;20127;48.962;8.342;2022-10-19T17:00:39;2.70;;;1.35;;
33824;SDS011;20127;48.962;8.342;2022-10-19T17:03:41;5.88;;;1.60;;
33824;SDS011;20127;48.962;8.342;2022-10-19T17:06:44;9.52;;;2.10;;
33824;SDS011;20127;48.962;8.342;2022-10-19T17:09:46;7.15;;;1.50;;
33824;SDS011;20127;48.962;8.342;2022-10-19T17:12:48;10.50;;;2.78;;
33824;SDS011;20127;48.962;8.342;2022-10-19T17:15:49;3.70;;;2.30;;
33824;SDS011;20127;48.962;8.342;2022-10-19T17:18:52;3.38;;;2.20;;
33824;SDS011;20127;48.962;8.342;2022-10-19T17:21:56;5.53;;;2.05;;
33824;SDS011;20127;48.962;8.342;2022-10-19T17:25:00;4.63;;;1.65;;
33824;SDS011;20127;48.962;8.342;2022-10-19T17:28:02;8.32;;;1.85;;
33824;SDS011;20127;48.962;8.342;2022-10-19T17:31:05;5.90;;;2.10;;
33824;SDS011;20127;48.962;8.342;2022-10-19T17:34:08;7.00;;;1.90;;
33824;SDS011;20127;48.962;8.342;2022-10-19T17:37:11;3.35;;;1.75;;
33824;SDS011;20127;48.962;8.342;2022-10-19T17:40:13;7.38;;;1.63;;
33824;SDS011;20127;48.962;8.342;2022-10-19T17:43:15;2.85;;;1.55;;
33824;SDS011;20127;48.962;8.342;2022-10-19T17:46:18;3.10;;;1.77;;
33824;SDS011;20127;48.962;8.342;2022-10-19T17:49:21;4.50;;;2.03;;
33824;SDS011;20127;48.962;8.342;2022-10-19T17:52:24;3.83;;;2.00;;
33824;SDS011;20127;48.962;8.342;2022-10-19T17:55:26;4.03;;;2.00;;
33824;SDS011;20127;48.962;8.342;2022-10-19T17:58:29;4.15;;;2.20;;
33824;SDS011;20127;48.962;8.342;2022-10-19T18:01:31;4.15;;;2.60;;
33824;SDS011;20127;48.962;8.342;2022-10-19T18:04:32;6.68;;;2.13;;
33824;SDS011;20127;48.962;8.342;2022-10-19T18:07:35;4.55;;;2.40;;
33824;SDS011;20127;48.962;8.342;2022-10-19T18:10:37;8.25;;;2.75;;
33824;SDS011;20127;48.962;8.342;2022-10-19T18:13:39;7.10;;;2.40;;
33824;SDS011;20127;48.962;8.342;2022-10-19T18:16:42;6.80;;;2.35;;
33824;SDS011;20127;48.962;8.342;2022-10-19T18:19:45;6.25;;;2.83;;
33824;SDS011;20127;48.962;8.342;2022-10-19T18:38:18;5.13;;;2.33;;
33824;SDS011;20127;48.962;8.342;2022-10-19T18:41:21;5.45;;;2.90;;
33824;SDS011;20127;48.962;8.342;2022-10-19T18:44:30;5.03;;;3.03;;
33824;SDS011;20127;48.962;8.342;2022-10-19T18:55:36;10.35;;;3.47;;
33824;SDS011;20127;48.962;8.342;2022-10-19T19:09:19;9.10;;;3.60;;
33824;SDS011;20127;48.962;8.342;2022-10-19T20:09:07;8.93;;;4.10;;
33824;SDS011;20127;48.962;8.342;2022-10-19T20:12:09;7.53;;;3.83;;
33824;SDS011;20127;48.962;8.342;2022-10-19T20:15:12;7.82;;;2.95;;
33824;SDS011;20127;48.962;8.342;2022-10-19T20:18:14;8.70;;;4.07;;
33824;SDS011;20127;48.962;8.342;2022-10-19T20:21:16;8.88;;;3.88;;
33824;SDS011;20127;48.962;8.342;2022-10-19T20:24:23;10.43;;;4.32;;
33824;SDS011;20127;48.962;8.342;2022-10-19T20:27:25;9.73;;;4.75;;
33824;SDS011;20127;48.962;8.342;2022-10-19T20:30:27;7.50;;;4.50;;
33824;SDS011;20127;48.962;8.342;2022-10-19T20:33:29;7.78;;;4.43;;